Time;durP1;ratioP1;P1;durP2;ratioP2;P2;SDS_P1;SDS_P2;PMS_P1;PMS_P2;Temp;Humidity;BMP_temperature;BMP_pressure;BME280_temperature;BME280_humidity;BME280_pressure;Samples;Min_cycle;Max_cycle;Signal;HPM_P1;HPM_P2
2021/12/27 00:00:12;;;;;;;26.63;17.45;;;;;;;;;;5115863;27;20091;-77
2021/12/27 00:02:38;;;;;;;25.95;15.98;;;;;;;;;;5115944;27;20051;-78
2021/12/27 00:05:05;;;;;;;26.55;16.83;;;;;;;;;;5133968;27;20047;-77
2021/12/27 00:07:31;;;;;;;26.08;16.63;;;;;;;;;;5133913;27;20127;-77
2021/12/27 00:09:57;;;;;;;26.52;16.75;;;;;;;;;;5133651;27;20159;-78
2021/12/27 00:12:23;;;;;;;24.88;16.45;;;;;;;;;;5115827;27;20483;-78
2021/12/27 00:14:49;;;;;;;26.77;17.52;;;;;;;;;;5134063;27;20082;-78
2021/12/27 00:17:15;;;;;;;25.85;16.15;;;;;;;;;;5133868;27;20130;-78
2021/12/27 00:19:41;;;;;;;27.38;17.27;;;;;;;;;;5133680;27;20129;-78
2021/12/27 00:22:08;;;;;;;26.10;17.30;;;;;;;;;;5115281;27;20558;-78
2021/12/27 00:24:34;;;;;;;24.90;16.65;;;;;;;;;;5115390;28;20053;-78
2021/12/27 00:27:00;;;;;;;27.20;17.48;;;;;;;;;;5114867;27;20039;-78
2021/12/27 00:29:26;;;;;;;26.42;17.30;;;;;;;;;;5133783;27;20059;-77
2021/12/27 00:31:52;;;;;;;26.35;17.08;;;;;;;;;;5133364;27;20050;-78
2021/12/27 00:34:18;;;;;;;26.40;17.13;;;;;;;;;;5133553;27;20039;-77
2021/12/27 00:36:44;;;;;;;25.52;17.08;;;;;;;;;;5133585;27;20498;-77
2021/12/27 00:39:10;;;;;;;27.05;17.35;;;;;;;;;;5114937;28;20122;-77
2021/12/27 00:41:37;;;;;;;27.13;17.13;;;;;;;;;;5115363;28;20043;-77
2021/12/27 00:44:03;;;;;;;24.00;16.77;;;;;;;;;;5133410;28;20131;-78
2021/12/27 00:46:29;;;;;;;26.67;17.42;;;;;;;;;;5115029;28;20468;-78
2021/12/27 00:48:55;;;;;;;25.75;17.50;;;;;;;;;;5133352;28;20496;-78
2021/12/27 00:51:21;;;;;;;24.40;16.83;;;;;;;;;;5133371;28;20123;-78
2021/12/27 00:53:48;;;;;;;25.90;16.60;;;;;;;;;;5133243;28;20047;-78
2021/12/27 00:56:14;;;;;;;24.20;16.00;;;;;;;;;;5133504;28;20039;-78
2021/12/27 00:58:40;;;;;;;29.23;17.13;;;;;;;;;;5133416;28;20045;-78
2021/12/27 01:01:06;;;;;;;26.40;17.05;;;;;;;;;;5133318;28;20043;-78
2021/12/27 01:03:32;;;;;;;27.35;17.70;;;;;;;;;;5133402;28;20081;-78
2021/12/27 01:05:58;;;;;;;24.88;16.65;;;;;;;;;;5133262;28;20045;-77
2021/12/27 01:08:24;;;;;;;25.05;16.98;;;;;;;;;;5133120;28;20047;-78
2021/12/27 01:13:25;;;;;;;28.13;17.55;;;;;;;;;;5133246;28;20087;-79
2021/12/27 01:18:32;;;;;;;27.30;17.63;;;;;;;;;;5132923;28;20112;-78
2021/12/27 01:20:59;;;;;;;25.45;16.88;;;;;;;;;;5132975;28;20134;-77
2021/12/27 01:23:25;;;;;;;29.27;18.20;;;;;;;;;;5114877;28;20068;-77
2021/12/27 01:25:51;;;;;;;26.23;16.92;;;;;;;;;;5133139;28;20043;-77
2021/12/27 01:28:19;;;;;;;25.80;16.58;;;;;;;;;;5132824;28;20104;-77
2021/12/27 01:30:49;;;;;;;25.60;17.15;;;;;;;;;;5132902;28;20050;-77
2021/12/27 01:33:16;;;;;;;28.77;17.60;;;;;;;;;;5132876;28;20054;-77
2021/12/27 01:35:43;;;;;;;29.17;18.05;;;;;;;;;;5132878;28;20065;-78
2021/12/27 01:38:10;;;;;;;26.80;17.10;;;;;;;;;;5132814;28;20039;-78
2021/12/27 01:40:37;;;;;;;27.98;17.80;;;;;;;;;;5098031;28;20047;-79
2021/12/27 01:43:03;;;;;;;26.63;18.05;;;;;;;;;;5134879;27;20043;-78
2021/12/27 01:45:29;;;;;;;26.85;17.50;;;;;;;;;;5136683;27;20075;-78
2021/12/27 01:47:55;;;;;;;25.90;17.50;;;;;;;;;;5136601;27;20422;-77
2021/12/27 01:50:22;;;;;;;30.15;19.20;;;;;;;;;;5136521;27;20039;-78
2021/12/27 01:52:48;;;;;;;29.42;18.45;;;;;;;;;;5118307;27;20051;-77
2021/12/27 01:55:14;;;;;;;29.52;19.00;;;;;;;;;;5136431;27;20039;-78
2021/12/27 01:57:40;;;;;;;25.33;17.08;;;;;;;;;;5118104;27;20122;-78
2021/12/27 02:00:07;;;;;;;28.25;18.00;;;;;;;;;;5136246;27;20532;-77
2021/12/27 02:02:33;;;;;;;25.33;16.77;;;;;;;;;;5136174;27;20098;-78
2021/12/27 02:04:59;;;;;;;27.80;18.33;;;;;;;;;;5136440;27;20050;-78
2021/12/27 02:07:25;;;;;;;28.63;18.35;;;;;;;;;;5136306;27;20149;-78
2021/12/27 02:10:02;;;;;;;27.33;17.30;;;;;;;;;;5136232;27;20057;-78
2021/12/27 02:12:28;;;;;;;28.98;19.45;;;;;;;;;;5117938;27;20480;-77
2021/12/27 02:14:55;;;;;;;26.13;18.40;;;;;;;;;;5136026;27;20047;-77
2021/12/27 02:17:21;;;;;;;26.85;17.40;;;;;;;;;;5136038;27;20043;-78
2021/12/27 02:19:48;;;;;;;28.95;18.80;;;;;;;;;;5136092;27;20043;-78
2021/12/27 02:22:14;;;;;;;25.83;16.55;;;;;;;;;;5136223;27;20122;-78
2021/12/27 02:24:41;;;;;;;29.00;19.70;;;;;;;;;;5117756;27;20078;-78
2021/12/27 02:27:13;;;;;;;29.23;19.55;;;;;;;;;;5135749;27;20051;-78
2021/12/27 02:29:40;;;;;;;27.77;19.10;;;;;;;;;;5135613;27;20086;-78
2021/12/27 02:32:06;;;;;;;26.10;16.88;;;;;;;;;;5135927;27;20043;-78
2021/12/27 02:34:33;;;;;;;26.88;18.27;;;;;;;;;;5117722;27;20518;-77
2021/12/27 02:36:59;;;;;;;29.08;18.92;;;;;;;;;;5135841;27;20095;-77
2021/12/27 02:39:25;;;;;;;29.10;18.77;;;;;;;;;;5135572;27;20503;-77
2021/12/27 02:41:52;;;;;;;31.55;20.05;;;;;;;;;;5135538;27;20038;-77
2021/12/27 02:44:19;;;;;;;28.33;19.38;;;;;;;;;;5135195;27;20437;-77
2021/12/27 02:46:45;;;;;;;28.67;19.08;;;;;;;;;;5135347;27;20114;-77
2021/12/27 02:49:20;;;;;;;29.75;19.55;;;;;;;;;;5135702;27;20108;-78
2021/12/27 02:51:46;;;;;;;28.73;18.95;;;;;;;;;;5135337;27;20468;-78
2021/12/27 02:54:12;;;;;;;26.70;18.08;;;;;;;;;;5134204;27;20092;-78
2021/12/27 02:56:38;;;;;;;29.27;20.30;;;;;;;;;;5117052;27;20047;-77
2021/12/27 02:59:04;;;;;;;29.92;18.30;;;;;;;;;;5135419;27;20039;-78
2021/12/27 03:01:31;;;;;;;25.85;16.67;;;;;;;;;;5117160;27;20093;-78
2021/12/27 03:03:57;;;;;;;29.05;17.77;;;;;;;;;;5135432;27;20043;-78
2021/12/27 03:06:23;;;;;;;29.33;18.38;;;;;;;;;;5116664;27;20035;-78
2021/12/27 03:08:49;;;;;;;26.50;17.92;;;;;;;;;;5116890;27;20114;-77
2021/12/27 03:11:16;;;;;;;29.23;18.45;;;;;;;;;;5134857;27;20039;-77
2021/12/27 03:13:46;;;;;;;30.35;17.63;;;;;;;;;;5116850;27;20047;-77
2021/12/27 03:16:16;;;;;;;27.70;18.45;;;;;;;;;;5116918;27;20043;-77
2021/12/27 03:18:44;;;;;;;27.65;18.90;;;;;;;;;;5116218;27;20449;-77
2021/12/27 03:21:10;;;;;;;26.38;17.38;;;;;;;;;;5134899;27;20043;-78
2021/12/27 03:23:38;;;;;;;29.67;18.92;;;;;;;;;;5134784;27;20361;-78
2021/12/27 03:26:05;;;;;;;28.63;18.98;;;;;;;;;;5134535;27;20055;-78
2021/12/27 03:28:32;;;;;;;29.45;18.60;;;;;;;;;;5134508;27;20050;-78
2021/12/27 03:30:58;;;;;;;29.83;19.08;;;;;;;;;;5134522;27;20122;-78
2021/12/27 03:33:24;;;;;;;28.25;19.42;;;;;;;;;;5134534;27;20047;-79
2021/12/27 03:36:00;;;;;;;29.98;19.45;;;;;;;;;;5115834;27;20572;-78
2021/12/27 03:38:27;;;;;;;30.23;19.60;;;;;;;;;;5134288;27;20043;-77
2021/12/27 03:40:53;;;;;;;30.83;20.30;;;;;;;;;;5116332;27;20388;-77
2021/12/27 03:43:19;;;;;;;29.00;20.00;;;;;;;;;;5134834;27;20042;-78
2021/12/27 03:45:45;;;;;;;30.20;18.98;;;;;;;;;;5134310;27;20099;-77
2021/12/27 03:48:12;;;;;;;29.98;19.15;;;;;;;;;;5115970;27;20572;-77
2021/12/27 03:50:38;;;;;;;27.83;19.02;;;;;;;;;;5134288;27;20392;-78
2021/12/27 03:53:05;;;;;;;33.40;20.52;;;;;;;;;;5115911;27;20103;-78
2021/12/27 03:55:31;;;;;;;28.80;18.60;;;;;;;;;;5134266;27;20444;-78
2021/12/27 03:58:07;;;;;;;29.98;20.52;;;;;;;;;;5133998;27;20379;-78
2021/12/27 04:00:58;;;;;;;29.77;19.48;;;;;;;;;;5115814;27;20082;-78
2021/12/27 04:03:25;;;;;;;31.70;20.60;;;;;;;;;;5134213;27;20388;-78
2021/12/27 04:05:51;;;;;;;30.95;19.48;;;;;;;;;;5133914;27;20391;-78
2021/12/27 04:08:18;;;;;;;28.83;19.63;;;;;;;;;;5133926;27;20042;-76
2021/12/27 04:10:44;;;;;;;30.77;20.77;;;;;;;;;;5133806;27;20043;-78
2021/12/27 04:13:11;;;;;;;28.80;20.33;;;;;;;;;;5134249;27;20442;-78
2021/12/27 04:15:38;;;;;;;30.17;19.98;;;;;;;;;;5133834;27;20039;-77
2021/12/27 04:18:05;;;;;;;28.67;18.33;;;;;;;;;;5098594;27;20139;-77
2021/12/27 04:20:31;;;;;;;30.85;20.90;;;;;;;;;;5115649;27;20050;-77
2021/12/27 04:22:58;;;;;;;28.50;19.75;;;;;;;;;;5133881;27;20039;-78
2021/12/27 04:25:24;;;;;;;29.15;19.75;;;;;;;;;;5115281;27;20130;-78
2021/12/27 04:27:51;;;;;;;31.42;20.52;;;;;;;;;;5133765;27;20058;-77
2021/12/27 04:30:18;;;;;;;30.27;20.17;;;;;;;;;;5133252;27;20047;-77
2021/12/27 04:32:44;;;;;;;31.30;19.92;;;;;;;;;;5133631;27;20130;-77
2021/12/27 04:35:11;;;;;;;30.77;20.55;;;;;;;;;;5133844;27;20052;-77
2021/12/27 04:37:37;;;;;;;29.50;18.80;;;;;;;;;;5133488;27;20099;-77
2021/12/27 04:40:05;;;;;;;29.45;19.75;;;;;;;;;;5115375;28;20039;-78
2021/12/27 04:42:31;;;;;;;33.60;21.48;;;;;;;;;;5133309;28;20050;-78
2021/12/27 04:44:58;;;;;;;32.53;20.80;;;;;;;;;;5133250;28;20043;-78
2021/12/27 04:47:24;;;;;;;31.27;19.45;;;;;;;;;;5133319;28;20485;-78
2021/12/27 04:49:50;;;;;;;30.67;20.65;;;;;;;;;;5133724;28;20125;-77
2021/12/27 04:52:17;;;;;;;31.58;20.52;;;;;;;;;;5133433;28;20039;-78
2021/12/27 04:54:43;;;;;;;31.60;19.88;;;;;;;;;;5115358;28;20078;-79
2021/12/27 04:57:09;;;;;;;31.17;21.00;;;;;;;;;;5098030;28;20128;-78
2021/12/27 04:59:36;;;;;;;31.38;20.40;;;;;;;;;;5133053;28;20039;-79
2021/12/27 05:02:02;;;;;;;31.10;22.00;;;;;;;;;;5133530;28;20492;-79
2021/12/27 05:04:29;;;;;;;28.45;19.50;;;;;;;;;;5115374;28;20125;-77
2021/12/27 05:06:55;;;;;;;31.30;20.00;;;;;;;;;;5133360;28;20050;-77
2021/12/27 05:09:21;;;;;;;28.30;19.67;;;;;;;;;;5133318;28;20050;-76
2021/12/27 05:11:47;;;;;;;30.60;20.33;;;;;;;;;;5114883;28;20062;-78
2021/12/27 05:14:14;;;;;;;29.42;19.80;;;;;;;;;;5132992;28;20081;-77
2021/12/27 05:16:40;;;;;;;29.85;20.10;;;;;;;;;;5133265;27;20053;-78
2021/12/27 05:19:06;;;;;;;29.20;20.10;;;;;;;;;;5118596;27;20083;-78
2021/12/27 05:21:32;;;;;;;28.65;19.80;;;;;;;;;;5119039;27;20076;-77
2021/12/27 05:23:58;;;;;;;33.13;21.35;;;;;;;;;;5102050;27;20126;-78
2021/12/27 05:26:24;;;;;;;29.15;20.30;;;;;;;;;;5137035;27;20510;-78
2021/12/27 05:28:50;;;;;;;30.17;21.38;;;;;;;;;;5136693;27;20089;-78
2021/12/27 05:31:17;;;;;;;29.60;20.13;;;;;;;;;;5136982;27;20071;-77
2021/12/27 05:33:43;;;;;;;29.92;20.17;;;;;;;;;;5118616;27;20035;-77
2021/12/27 05:36:12;;;;;;;30.55;20.92;;;;;;;;;;5136901;27;20043;-78
2021/12/27 05:38:38;;;;;;;30.58;20.08;;;;;;;;;;5136699;27;20506;-77
2021/12/27 05:41:04;;;;;;;30.73;20.20;;;;;;;;;;5136755;27;20043;-77
2021/12/27 05:43:31;;;;;;;29.02;20.20;;;;;;;;;;5118519;27;20039;-77
2021/12/27 05:45:57;;;;;;;28.85;20.40;;;;;;;;;;5136584;27;20470;-77
2021/12/27 05:48:23;;;;;;;29.75;20.23;;;;;;;;;;5118662;27;20047;-77
2021/12/27 05:50:49;;;;;;;31.38;20.58;;;;;;;;;;5118330;27;20043;-77
2021/12/27 05:53:16;;;;;;;32.47;20.42;;;;;;;;;;5136540;27;20407;-77
2021/12/27 05:55:43;;;;;;;29.42;20.48;;;;;;;;;;5136384;27;20476;-77
2021/12/27 05:58:09;;;;;;;30.15;19.92;;;;;;;;;;5117835;27;20383;-78
2021/12/27 06:00:35;;;;;;;30.60;19.63;;;;;;;;;;5136562;27;20035;-78
2021/12/27 06:03:02;;;;;;;29.90;20.15;;;;;;;;;;5136347;27;20130;-77
2021/12/27 06:05:41;;;;;;;32.45;21.38;;;;;;;;;;5136313;27;20488;-78
2021/12/27 06:08:07;;;;;;;30.77;21.60;;;;;;;;;;5136219;27;20055;-77
2021/12/27 06:10:33;;;;;;;35.25;23.05;;;;;;;;;;5117893;27;20204;-77
2021/12/27 06:12:59;;;;;;;34.63;22.15;;;;;;;;;;5118022;27;20038;-78
2021/12/27 06:15:25;;;;;;;33.17;22.77;;;;;;;;;;5136432;27;20082;-77
2021/12/27 06:17:51;;;;;;;34.25;22.73;;;;;;;;;;5136110;27;20089;-78
2021/12/27 06:20:18;;;;;;;38.67;24.75;;;;;;;;;;5135825;27;20545;-78
2021/12/27 06:22:50;;;;;;;39.03;24.80;;;;;;;;;;5135879;27;20484;-77
2021/12/27 06:25:16;;;;;;;33.55;21.05;;;;;;;;;;5135736;27;20511;-77
2021/12/27 06:27:42;;;;;;;34.30;23.38;;;;;;;;;;5135854;27;20051;-78
2021/12/27 06:30:10;;;;;;;32.58;22.13;;;;;;;;;;5135554;27;20051;-78
2021/12/27 06:32:36;;;;;;;44.33;29.23;;;;;;;;;;5135789;27;20042;-77
2021/12/27 06:35:04;;;;;;;93.53;47.75;;;;;;;;;;5117487;27;20043;-78
2021/12/27 06:37:30;;;;;;;83.93;44.22;;;;;;;;;;5135588;27;20043;-77
2021/12/27 06:39:56;;;;;;;93.10;46.15;;;;;;;;;;5135718;27;20043;-78
2021/12/27 06:42:22;;;;;;;59.63;32.20;;;;;;;;;;5100575;27;20054;-78
2021/12/27 06:44:48;;;;;;;65.93;33.17;;;;;;;;;;5117456;27;20547;-78
2021/12/27 06:47:15;;;;;;;54.45;32.03;;;;;;;;;;5135399;27;20039;-78
2021/12/27 06:49:42;;;;;;;45.17;27.70;;;;;;;;;;5117221;27;20134;-78
2021/12/27 06:52:08;;;;;;;37.17;24.63;;;;;;;;;;5135244;27;20054;-77
2021/12/27 06:54:34;;;;;;;34.90;22.17;;;;;;;;;;5135403;27;20126;-77
2021/12/27 06:57:01;;;;;;;30.65;20.80;;;;;;;;;;5135247;27;20054;-77
2021/12/27 06:59:30;;;;;;;30.65;21.98;;;;;;;;;;5135097;27;20047;-77
2021/12/27 07:01:56;;;;;;;32.13;21.52;;;;;;;;;;5135194;27;20050;-77
2021/12/27 07:04:22;;;;;;;31.95;21.55;;;;;;;;;;5135040;27;20074;-78
2021/12/27 07:06:48;;;;;;;32.67;21.52;;;;;;;;;;5116546;27;20100;-77
2021/12/27 07:09:15;;;;;;;34.28;22.35;;;;;;;;;;5116632;27;20051;-78
2021/12/27 07:11:41;;;;;;;32.53;21.95;;;;;;;;;;5116817;27;20433;-77
2021/12/27 07:14:07;;;;;;;31.05;22.27;;;;;;;;;;5134923;27;20074;-78
2021/12/27 07:16:34;;;;;;;30.90;21.63;;;;;;;;;;5134955;27;20039;-77
2021/12/27 07:19:00;;;;;;;33.78;21.42;;;;;;;;;;5134791;27;20039;-77
2021/12/27 07:21:26;;;;;;;35.03;22.58;;;;;;;;;;5134697;27;20096;-77
2021/12/27 07:23:53;;;;;;;32.35;22.40;;;;;;;;;;5116800;27;20476;-78
2021/12/27 07:26:19;;;;;;;32.63;21.50;;;;;;;;;;5134786;27;20051;-77
2021/12/27 07:28:45;;;;;;;32.20;21.48;;;;;;;;;;5112706;28;20130;-77
2021/12/27 07:31:11;;;;;;;34.22;21.13;;;;;;;;;;5113997;28;20177;-77
2021/12/27 07:33:37;;;;;;;33.80;22.25;;;;;;;;;;5113089;28;20127;-77
2021/12/27 07:36:08;;;;;;;32.72;21.05;;;;;;;;;;5098930;28;20131;-78
2021/12/27 07:38:38;;;;;;;35.22;22.65;;;;;;;;;;5092511;28;20044;-78
2021/12/27 07:41:04;;;;;;;34.63;22.73;;;;;;;;;;5105645;28;20047;-78
2021/12/27 07:43:30;;;;;;;31.42;19.52;;;;;;;;;;5104929;28;20142;-77
2021/12/27 07:45:56;;;;;;;33.00;20.85;;;;;;;;;;5109699;28;20484;-77
2021/12/27 07:48:22;;;;;;;34.75;21.92;;;;;;;;;;5103224;28;20071;-78
2021/12/27 07:50:48;;;;;;;33.55;21.25;;;;;;;;;;5100644;28;20097;-77
2021/12/27 07:53:15;;;;;;;35.05;23.20;;;;;;;;;;5101691;28;20047;-77
2021/12/27 07:55:41;;;;;;;39.35;23.23;;;;;;;;;;5097310;28;20131;-77
2021/12/27 07:58:07;;;;;;;37.63;23.50;;;;;;;;;;5091739;28;20088;-78
2021/12/27 08:00:34;;;;;;;37.03;22.48;;;;;;;;;;5093113;28;20039;-80
2021/12/27 08:03:00;;;;;;;35.72;23.02;;;;;;;;;;5113602;28;20497;-78
2021/12/27 08:05:26;;;;;;;37.03;23.35;;;;;;;;;;5113730;28;20145;-77
2021/12/27 08:07:54;;;;;;;36.88;22.35;;;;;;;;;;5110905;28;20036;-77
2021/12/27 08:10:20;;;;;;;36.22;23.10;;;;;;;;;;5112090;28;20046;-77
2021/12/27 08:12:46;;;;;;;35.45;22.50;;;;;;;;;;5111866;28;20068;-79
2021/12/27 08:15:13;;;;;;;37.80;23.25;;;;;;;;;;5110920;28;20134;-79
2021/12/27 08:17:39;;;;;;;40.58;23.75;;;;;;;;;;5110860;28;20058;-78
2021/12/27 08:20:06;;;;;;;36.97;24.60;;;;;;;;;;5112680;28;20053;-78
2021/12/27 08:22:32;;;;;;;37.97;23.92;;;;;;;;;;5113240;28;20169;-78
2021/12/27 08:24:58;;;;;;;38.15;23.25;;;;;;;;;;5111915;28;20071;-79
2021/12/27 08:27:25;;;;;;;43.05;24.48;;;;;;;;;;5112858;28;20160;-78
2021/12/27 08:29:51;;;;;;;40.05;24.25;;;;;;;;;;5133165;27;20365;-78
2021/12/27 08:32:18;;;;;;;41.38;24.48;;;;;;;;;;5133418;27;20129;-79
2021/12/27 08:34:44;;;;;;;40.22;25.48;;;;;;;;;;5115213;27;20046;-79
2021/12/27 08:37:11;;;;;;;39.15;23.00;;;;;;;;;;5133509;27;20521;-78
2021/12/27 08:39:38;;;;;;;42.40;24.85;;;;;;;;;;5128344;27;20122;-78
2021/12/27 08:42:07;;;;;;;39.40;23.15;;;;;;;;;;5123887;28;20042;-77
2021/12/27 08:44:34;;;;;;;40.03;24.70;;;;;;;;;;5095378;28;20161;-79
2021/12/27 08:47:00;;;;;;;43.15;24.67;;;;;;;;;;5094796;28;20050;-80
2021/12/27 08:49:26;;;;;;;44.75;26.00;;;;;;;;;;5112734;28;20040;-81
2021/12/27 08:51:52;;;;;;;39.13;23.35;;;;;;;;;;5095288;28;20044;-80
2021/12/27 08:54:18;;;;;;;45.08;25.17;;;;;;;;;;5082553;27;20043;-80
2021/12/27 08:56:45;;;;;;;43.22;24.73;;;;;;;;;;5099068;28;20073;-78
2021/12/27 08:59:11;;;;;;;44.67;25.33;;;;;;;;;;5116954;27;20542;-78
2021/12/27 09:01:37;;;;;;;47.13;25.33;;;;;;;;;;5117237;28;20050;-78
2021/12/27 09:04:04;;;;;;;45.53;26.45;;;;;;;;;;5117018;28;20443;-78
2021/12/27 09:06:33;;;;;;;51.00;26.40;;;;;;;;;;5099148;28;20050;-79
2021/12/27 09:09:00;;;;;;;47.67;25.45;;;;;;;;;;5116857;28;20035;-78
2021/12/27 09:11:26;;;;;;;47.92;26.35;;;;;;;;;;5118772;27;20382;-79
2021/12/27 09:13:52;;;;;;;49.45;27.17;;;;;;;;;;5116496;28;20082;-78
2021/12/27 09:16:18;;;;;;;51.03;26.70;;;;;;;;;;5116786;28;20116;-77
2021/12/27 09:18:44;;;;;;;48.60;26.40;;;;;;;;;;5116464;28;20497;-79
2021/12/27 09:21:11;;;;;;;49.70;26.95;;;;;;;;;;5116720;28;20147;-78
2021/12/27 09:23:37;;;;;;;53.47;28.30;;;;;;;;;;5116751;28;20043;-79
2021/12/27 09:26:04;;;;;;;53.83;27.17;;;;;;;;;;5098272;28;20062;-78
2021/12/27 09:28:31;;;;;;;59.10;28.08;;;;;;;;;;5116202;28;20438;-78
2021/12/27 09:30:57;;;;;;;59.00;29.42;;;;;;;;;;5116396;28;20365;-78
2021/12/27 09:33:23;;;;;;;52.33;27.27;;;;;;;;;;5099111;28;20047;-77
2021/12/27 09:35:50;;;;;;;56.45;27.35;;;;;;;;;;5116447;28;20039;-77
2021/12/27 09:38:16;;;;;;;60.38;29.48;;;;;;;;;;5133500;27;20368;-77
2021/12/27 09:40:43;;;;;;;63.05;29.48;;;;;;;;;;5136798;27;20157;-81
2021/12/27 09:43:09;;;;;;;58.80;28.13;;;;;;;;;;5103025;28;20047;-77
2021/12/27 09:45:35;;;;;;;64.03;29.10;;;;;;;;;;5116572;28;20112;-82
2021/12/27 09:48:01;;;;;;;65.50;31.23;;;;;;;;;;5123603;27;20400;-81
2021/12/27 09:50:33;;;;;;;62.03;30.73;;;;;;;;;;5098230;28;20054;-79
2021/12/27 09:53:00;;;;;;;68.20;31.23;;;;;;;;;;5099103;28;20043;-79
2021/12/27 09:55:27;;;;;;;61.17;29.10;;;;;;;;;;5097910;28;20127;-81
2021/12/27 09:57:53;;;;;;;68.78;31.58;;;;;;;;;;5098196;28;20435;-78
2021/12/27 10:00:19;;;;;;;68.10;30.52;;;;;;;;;;5116042;28;20096;-79
2021/12/27 10:02:48;;;;;;;74.63;32.10;;;;;;;;;;5116630;27;20050;-77
2021/12/27 10:05:14;;;;;;;71.38;31.73;;;;;;;;;;5115704;28;20043;-78
2021/12/27 10:07:41;;;;;;;68.75;30.40;;;;;;;;;;5115875;27;20447;-79
2021/12/27 10:10:09;;;;;;;72.97;31.52;;;;;;;;;;5097324;28;20484;-78
2021/12/27 10:12:35;;;;;;;70.97;31.92;;;;;;;;;;5117292;27;20039;-81
2021/12/27 10:15:03;;;;;;;78.50;33.95;;;;;;;;;;5115682;28;20101;-80
2021/12/27 10:17:30;;;;;;;82.95;33.58;;;;;;;;;;5116092;27;20122;-80
2021/12/27 10:20:08;;;;;;;81.32;32.08;;;;;;;;;;5097902;28;20044;-81
2021/12/27 10:22:37;;;;;;;76.32;33.15;;;;;;;;;;5115919;27;20234;-80
2021/12/27 10:25:08;;;;;;;84.32;32.83;;;;;;;;;;5080661;28;20131;-81
2021/12/27 10:27:35;;;;;;;87.57;37.50;;;;;;;;;;5115483;28;20050;-82
2021/12/27 10:30:09;;;;;;;87.68;36.33;;;;;;;;;;5115467;28;20511;-80
2021/12/27 10:32:35;;;;;;;97.93;37.72;;;;;;;;;;5115346;28;20126;-82
2021/12/27 10:35:05;;;;;;;107.03;36.90;;;;;;;;;;5080338;28;20138;-81
2021/12/27 10:37:32;;;;;;;96.90;38.00;;;;;;;;;;5115487;28;20480;-82
2021/12/27 10:40:02;;;;;;;113.30;41.65;;;;;;;;;;5115045;28;20484;-80
2021/12/27 10:42:28;;;;;;;113.38;40.35;;;;;;;;;;5097217;28;20493;-80
2021/12/27 10:44:57;;;;;;;129.65;47.55;;;;;;;;;;5097166;28;20055;-81
2021/12/27 10:47:27;;;;;;;119.38;44.97;;;;;;;;;;5115136;28;20480;-82
2021/12/27 10:49:53;;;;;;;132.68;50.08;;;;;;;;;;5114948;28;20543;-81
2021/12/27 10:52:20;;;;;;;104.88;38.85;;;;;;;;;;5097027;28;20043;-82
2021/12/27 10:54:46;;;;;;;120.47;42.88;;;;;;;;;;5115352;28;20039;-80
2021/12/27 10:57:14;;;;;;;121.68;41.03;;;;;;;;;;5114947;28;20041;-81
2021/12/27 10:59:40;;;;;;;108.40;36.40;;;;;;;;;;5118336;27;20043;-80
2021/12/27 11:02:10;;;;;;;113.65;35.90;;;;;;;;;;5131995;27;20073;-80
2021/12/27 11:04:37;;;;;;;113.65;37.15;;;;;;;;;;5135091;27;20047;-83
2021/12/27 11:07:05;;;;;;;110.28;35.75;;;;;;;;;;5116646;27;20047;-81
2021/12/27 11:09:35;;;;;;;112.07;35.80;;;;;;;;;;5135243;27;20125;-81
2021/12/27 11:12:01;;;;;;;111.63;37.85;;;;;;;;;;5116984;27;20059;-81
2021/12/27 11:14:28;;;;;;;112.32;36.25;;;;;;;;;;5116116;28;20047;-79
2021/12/27 11:16:54;;;;;;;117.28;36.70;;;;;;;;;;5116616;27;20138;-81
2021/12/27 11:19:21;;;;;;;122.72;38.00;;;;;;;;;;5116925;27;20126;-81
2021/12/27 11:21:49;;;;;;;126.20;38.53;;;;;;;;;;5135113;27;20051;-82
2021/12/27 11:24:16;;;;;;;125.07;37.58;;;;;;;;;;5116727;27;20043;-81
2021/12/27 11:26:43;;;;;;;110.50;37.42;;;;;;;;;;5116884;27;20043;-80
2021/12/27 11:29:22;;;;;;;139.13;40.15;;;;;;;;;;5134080;27;20168;-82
2021/12/27 11:31:50;;;;;;;118.28;38.05;;;;;;;;;;5096338;28;20044;-80
2021/12/27 11:34:17;;;;;;;145.32;38.53;;;;;;;;;;5096832;27;20078;-82
2021/12/27 11:36:45;;;;;;;131.73;39.70;;;;;;;;;;5096314;28;20039;-80
2021/12/27 11:39:25;;;;;;;146.10;39.85;;;;;;;;;;5095981;28;20492;-82
2021/12/27 11:42:01;;;;;;;134.23;37.95;;;;;;;;;;5095992;28;20044;-81
2021/12/27 11:44:46;;;;;;;152.95;40.53;;;;;;;;;;5115064;27;20051;-80
2021/12/27 11:47:13;;;;;;;159.65;40.42;;;;;;;;;;5113695;28;20046;-80
2021/12/27 11:49:45;;;;;;;166.05;40.90;;;;;;;;;;5098278;27;20081;-81
2021/12/27 11:52:20;;;;;;;152.70;39.25;;;;;;;;;;5134700;27;20039;-84
2021/12/27 11:54:51;;;;;;;146.73;39.70;;;;;;;;;;5100227;27;20046;-84
2021/12/27 11:57:36;;;;;;;172.52;46.75;;;;;;;;;;5117314;27;20473;-79
2021/12/27 12:00:23;;;;;;;159.70;46.20;;;;;;;;;;5095976;28;20052;-82
2021/12/27 12:02:51;;;;;;;131.32;38.35;;;;;;;;;;5095719;28;20051;-82
2021/12/27 12:05:36;;;;;;;140.88;41.28;;;;;;;;;;5078849;28;20047;-84
2021/12/27 12:08:02;;;;;;;151.90;42.63;;;;;;;;;;5078649;28;20048;-81
2021/12/27 12:10:30;;;;;;;136.55;41.03;;;;;;;;;;5095300;28;20116;-80
2021/12/27 12:13:19;;;;;;;134.40;40.50;;;;;;;;;;5112925;28;20092;-80
2021/12/27 12:15:58;;;;;;;151.82;41.63;;;;;;;;;;5068011;28;20054;-80
2021/12/27 12:18:24;;;;;;;141.05;43.88;;;;;;;;;;5113198;28;20131;-80
2021/12/27 12:20:50;;;;;;;153.68;45.45;;;;;;;;;;5101369;27;20031;-78
2021/12/27 12:23:16;;;;;;;162.27;44.13;;;;;;;;;;5133472;27;20100;-81
2021/12/27 12:25:42;;;;;;;160.77;45.17;;;;;;;;;;5108704;28;20099;-83
2021/12/27 12:28:10;;;;;;;129.40;42.60;;;;;;;;;;5094681;28;20139;-82
2021/12/27 12:30:42;;;;;;;131.55;39.88;;;;;;;;;;5114436;28;20607;-82
2021/12/27 12:33:08;;;;;;;120.82;37.08;;;;;;;;;;5094868;28;20096;-81
2021/12/27 12:35:39;;;;;;;147.10;38.95;;;;;;;;;;5098243;27;20074;-79
2021/12/27 12:38:19;;;;;;;139.80;39.58;;;;;;;;;;5133264;27;20055;-78
2021/12/27 12:40:57;;;;;;;131.88;37.80;;;;;;;;;;5115289;28;20051;-81
2021/12/27 12:43:42;;;;;;;135.20;39.30;;;;;;;;;;5115091;28;20078;-82
2021/12/27 12:46:11;;;;;;;121.55;38.13;;;;;;;;;;5133312;28;20039;-81
2021/12/27 12:48:37;;;;;;;115.55;37.47;;;;;;;;;;5133320;28;20043;-80
2021/12/27 12:51:03;;;;;;;108.75;36.75;;;;;;;;;;5106389;28;20047;-79
2021/12/27 12:53:34;;;;;;;107.05;36.72;;;;;;;;;;5095224;28;20054;-81
2021/12/27 12:56:04;;;;;;;110.35;36.88;;;;;;;;;;5112895;28;20122;-80
2021/12/27 12:58:35;;;;;;;90.30;34.90;;;;;;;;;;5099900;28;20388;-81
2021/12/27 13:01:05;;;;;;;88.70;34.83;;;;;;;;;;5115045;28;20070;-81
2021/12/27 13:03:31;;;;;;;93.20;34.63;;;;;;;;;;5115395;28;20053;-81
2021/12/27 13:05:58;;;;;;;91.43;35.80;;;;;;;;;;5115109;28;20043;-82
2021/12/27 13:08:24;;;;;;;99.25;40.78;;;;;;;;;;5133354;28;20439;-82
2021/12/27 13:10:54;;;;;;;94.25;35.30;;;;;;;;;;5114940;28;20118;-81
2021/12/27 13:13:21;;;;;;;99.37;42.20;;;;;;;;;;5097837;28;20049;-82
2021/12/27 13:15:54;;;;;;;95.68;38.05;;;;;;;;;;5096037;28;20049;-82
2021/12/27 13:18:22;;;;;;;89.85;41.60;;;;;;;;;;5114021;28;20039;-82
2021/12/27 13:20:53;;;;;;;92.10;39.30;;;;;;;;;;5114178;28;20082;-82
2021/12/27 13:23:20;;;;;;;82.55;37.45;;;;;;;;;;5133122;28;20450;-81
2021/12/27 13:25:51;;;;;;;77.95;32.83;;;;;;;;;;5114311;28;20054;-80
2021/12/27 13:28:30;;;;;;;71.40;30.73;;;;;;;;;;5114339;28;20054;-80
2021/12/27 13:30:56;;;;;;;69.60;30.77;;;;;;;;;;5133134;28;20179;-81
2021/12/27 13:33:23;;;;;;;64.28;30.15;;;;;;;;;;5114737;28;20043;-82
2021/12/27 13:35:50;;;;;;;61.50;30.73;;;;;;;;;;5114468;28;20473;-81
2021/12/27 13:38:24;;;;;;;58.92;30.70;;;;;;;;;;5114869;27;21961;-80
2021/12/27 13:40:52;;;;;;;63.45;29.00;;;;;;;;;;5136363;27;20143;-82
2021/12/27 13:43:19;;;;;;;67.03;29.42;;;;;;;;;;5136268;27;20039;-80
2021/12/27 13:45:45;;;;;;;61.30;28.73;;;;;;;;;;5117962;27;20043;-82
2021/12/27 13:48:12;;;;;;;59.28;28.08;;;;;;;;;;5135936;27;20058;-81
2021/12/27 13:50:39;;;;;;;58.65;30.15;;;;;;;;;;5118108;27;20039;-80
2021/12/27 13:53:16;;;;;;;62.72;28.70;;;;;;;;;;5136279;27;20046;-81
2021/12/27 13:55:42;;;;;;;59.90;29.23;;;;;;;;;;5136610;27;20050;-82
2021/12/27 13:58:12;;;;;;;68.88;30.48;;;;;;;;;;5117763;27;20043;-81
2021/12/27 14:00:39;;;;;;;62.22;29.48;;;;;;;;;;5118195;27;20045;-81
2021/12/27 14:03:05;;;;;;;65.22;29.63;;;;;;;;;;5118310;27;20043;-81
2021/12/27 14:05:35;;;;;;;61.53;28.98;;;;;;;;;;5136237;27;20484;-82
2021/12/27 14:08:10;;;;;;;61.42;28.48;;;;;;;;;;5136539;27;20039;-81
2021/12/27 14:10:36;;;;;;;57.08;29.00;;;;;;;;;;5136208;27;20041;-81
2021/12/27 14:13:03;;;;;;;58.00;27.70;;;;;;;;;;5136189;27;20130;-81
2021/12/27 14:15:30;;;;;;;52.47;28.30;;;;;;;;;;5136123;27;20070;-81
2021/12/27 14:18:07;;;;;;;58.47;28.52;;;;;;;;;;5117599;27;20503;-80
2021/12/27 14:20:33;;;;;;;58.22;27.38;;;;;;;;;;5136017;27;20043;-81
2021/12/27 14:23:06;;;;;;;67.93;29.05;;;;;;;;;;5117946;27;20078;-80